createdAt,value
2018-09-20T00:00:43.025Z,1.70
2018-09-20T00:03:11.673Z,1.37
2018-09-20T00:05:40.329Z,1.33
2018-09-20T00:08:09.169Z,1.30
2018-09-20T00:10:37.822Z,1.30
2018-09-20T00:13:06.510Z,0.90
2018-09-20T00:15:35.194Z,1.00
2018-09-20T00:18:03.877Z,1.00
2018-09-20T00:20:32.537Z,0.90
2018-09-20T00:23:01.188Z,1.07
2018-09-20T00:25:29.840Z,1.10
2018-09-20T00:27:58.505Z,0.87
2018-09-20T00:30:27.160Z,1.00
2018-09-20T00:32:55.803Z,0.90
2018-09-20T00:35:24.478Z,1.30
2018-09-20T00:37:53.096Z,0.93
2018-09-20T00:40:21.759Z,1.03
2018-09-20T00:42:50.399Z,1.43
2018-09-20T00:45:19.055Z,1.27
2018-09-20T00:47:47.714Z,1.17
2018-09-20T00:50:16.407Z,1.20
2018-09-20T00:52:45.049Z,0.90
2018-09-20T00:55:13.711Z,1.00
2018-09-20T00:57:42.391Z,1.00
2018-09-20T01:00:11.197Z,1.13
2018-09-20T01:03:13.770Z,1.10
2018-09-20T01:05:42.472Z,1.10
2018-09-20T01:08:11.128Z,1.10
2018-09-20T01:10:39.792Z,0.93
2018-09-20T01:13:08.466Z,1.13
2018-09-20T01:15:37.125Z,0.90
2018-09-20T01:18:05.968Z,1.20
2018-09-20T01:20:34.634Z,0.80
2018-09-20T01:23:03.288Z,1.07
2018-09-20T01:25:31.993Z,0.73
2018-09-20T01:28:00.647Z,0.73
2018-09-20T01:30:29.331Z,0.60
2018-09-20T01:32:57.983Z,0.60
2018-09-20T01:35:26.664Z,0.40
2018-09-20T01:37:55.376Z,0.67
2018-09-20T01:40:24.038Z,0.60
2018-09-20T01:42:52.689Z,0.30
2018-09-20T01:45:21.366Z,0.60
2018-09-20T01:47:50.020Z,0.60
2018-09-20T01:50:18.685Z,0.63
2018-09-20T01:52:47.391Z,0.90
2018-09-20T01:55:16.058Z,0.50
2018-09-20T01:57:44.719Z,0.40
2018-09-20T02:00:13.399Z,0.40
2018-09-20T02:02:42.065Z,0.47
2018-09-20T02:05:10.741Z,0.40
2018-09-20T02:07:39.412Z,0.40
2018-09-20T02:10:08.124Z,0.40
2018-09-20T02:12:36.782Z,0.33
2018-09-20T02:15:05.495Z,0.40
2018-09-20T02:17:34.313Z,0.30
2018-09-20T02:20:02.983Z,0.40
2018-09-20T02:22:31.727Z,0.20
2018-09-20T02:25:00.416Z,0.20
2018-09-20T02:27:29.070Z,0.20
2018-09-20T02:29:57.742Z,0.30
2018-09-20T02:32:26.412Z,0.30
2018-09-20T02:34:55.201Z,0.30
2018-09-20T02:37:23.869Z,0.30
2018-09-20T02:39:52.529Z,0.30
2018-09-20T02:42:21.201Z,0.30
2018-09-20T02:44:49.862Z,0.47
2018-09-20T02:47:18.548Z,0.23
2018-09-20T02:49:47.199Z,0.10
2018-09-20T02:52:15.949Z,0.30
2018-09-20T02:54:44.694Z,0.20
2018-09-20T02:57:13.347Z,0.17
2018-09-20T02:59:42.040Z,0.20
2018-09-20T03:02:10.732Z,0.20
2018-09-20T03:04:39.472Z,0.20
2018-09-20T03:07:08.132Z,0.20
2018-09-20T03:09:36.789Z,0.20
2018-09-20T03:12:05.486Z,0.20
2018-09-20T03:14:34.184Z,0.43
2018-09-20T03:17:03.200Z,0.37
2018-09-20T03:19:31.836Z,0.23
2018-09-20T03:22:00.499Z,0.50
2018-09-20T03:24:29.191Z,0.20
2018-09-20T03:26:57.936Z,0.10
2018-09-20T03:29:26.616Z,0.50
2018-09-20T03:31:55.294Z,0.47
2018-09-20T03:34:23.924Z,0.20
2018-09-20T03:36:52.636Z,0.20
2018-09-20T03:39:21.309Z,0.20
2018-09-20T03:41:49.987Z,0.30
2018-09-20T03:44:18.652Z,0.20
2018-09-20T03:46:47.300Z,0.20
2018-09-20T03:49:15.983Z,0.20
2018-09-20T03:51:44.624Z,0.20
2018-09-20T03:54:13.276Z,0.30
2018-09-20T03:56:41.936Z,0.30
2018-09-20T03:59:10.624Z,0.30
2018-09-20T04:01:39.276Z,0.40
2018-09-20T04:04:07.931Z,0.20
2018-09-20T04:06:36.605Z,0.10
2018-09-20T04:09:08.355Z,0.20
2018-09-20T04:11:37.244Z,0.30
2018-09-20T04:14:06.137Z,0.10
2018-09-20T04:16:34.795Z,0.20
2018-09-20T04:19:03.520Z,0.30
2018-09-20T04:21:34.177Z,0.67
2018-09-20T04:24:04.209Z,0.30
2018-09-20T04:26:33.259Z,0.30
2018-09-20T04:29:02.162Z,0.30
2018-09-20T04:31:31.451Z,0.30
2018-09-20T04:34:01.166Z,0.40
2018-09-20T04:36:30.464Z,0.57
2018-09-20T04:38:59.234Z,0.50
2018-09-20T04:41:27.901Z,0.40
2018-09-20T04:43:56.579Z,0.33
2018-09-20T04:46:25.259Z,0.60
2018-09-20T04:48:53.908Z,0.40
2018-09-20T04:51:22.598Z,0.60
2018-09-20T04:53:51.261Z,0.50
2018-09-20T04:56:19.936Z,0.70
2018-09-20T04:58:48.596Z,0.80
2018-09-20T05:01:17.276Z,0.70
2018-09-20T05:03:45.944Z,0.50
2018-09-20T05:06:14.638Z,0.80
2018-09-20T05:08:43.293Z,0.60
2018-09-20T05:11:11.964Z,0.83
2018-09-20T05:13:40.631Z,1.20
2018-09-20T05:16:09.307Z,1.33
2018-09-20T05:18:38.041Z,0.80
2018-09-20T05:21:06.731Z,0.97
2018-09-20T05:23:35.400Z,1.23
2018-09-20T05:26:04.072Z,0.90
2018-09-20T05:28:32.792Z,0.83
2018-09-20T05:31:01.506Z,0.90
2018-09-20T05:33:30.156Z,0.90
2018-09-20T05:35:59.136Z,0.90
2018-09-20T05:38:27.813Z,0.87
2018-09-20T05:40:56.488Z,0.70
2018-09-20T05:43:25.212Z,0.90
2018-09-20T05:45:53.851Z,0.83
2018-09-20T05:48:22.492Z,0.70
2018-09-20T05:50:51.181Z,1.20
2018-09-20T05:53:19.819Z,0.93
2018-09-20T05:55:48.475Z,0.73
2018-09-20T05:58:17.144Z,0.73
2018-09-20T06:00:45.845Z,0.80
2018-09-20T06:03:14.600Z,0.83
2018-09-20T06:05:43.330Z,1.10
2018-09-20T06:08:11.973Z,1.67
2018-09-20T06:10:40.666Z,1.40
2018-09-20T06:13:09.411Z,1.90
2018-09-20T06:15:38.044Z,1.73
2018-09-20T06:18:06.792Z,2.00
2018-09-20T06:20:35.491Z,2.03
2018-09-20T06:23:04.192Z,2.00
2018-09-20T06:25:32.884Z,1.80
2018-09-20T06:28:01.557Z,1.20
2018-09-20T06:30:30.237Z,0.93
2018-09-20T06:32:58.929Z,0.90
2018-09-20T06:35:27.749Z,2.30
2018-09-20T06:37:56.493Z,1.57
2018-09-20T06:40:25.176Z,1.07
2018-09-20T06:42:53.862Z,0.70
2018-09-20T06:45:22.540Z,0.70
2018-09-20T06:47:51.249Z,1.00
2018-09-20T06:50:20.107Z,1.43
2018-09-20T06:52:48.823Z,1.37
2018-09-20T06:55:17.538Z,1.40
2018-09-20T06:57:46.252Z,1.47
2018-09-20T07:00:14.997Z,1.00
2018-09-20T07:02:43.792Z,1.60
2018-09-20T07:05:12.552Z,1.47
2018-09-20T07:07:41.239Z,1.50
2018-09-20T07:10:10.018Z,1.13
2018-09-20T07:12:38.696Z,1.70
2018-09-20T07:15:08.228Z,1.43
2018-09-20T07:17:37.114Z,1.70
2018-09-20T07:20:05.860Z,1.93
2018-09-20T07:22:34.574Z,1.20
2018-09-20T07:25:03.325Z,1.33
2018-09-20T07:27:32.032Z,1.77
2018-09-20T07:30:00.719Z,1.50
2018-09-20T07:32:29.405Z,1.60
2018-09-20T07:34:58.101Z,1.87
2018-09-20T07:37:26.817Z,1.60
2018-09-20T07:40:03.325Z,1.87
2018-09-20T07:42:32.200Z,1.77
2018-09-20T07:45:00.883Z,1.90
2018-09-20T07:47:29.564Z,2.90
2018-09-20T07:49:58.253Z,3.00
2018-09-20T07:52:26.925Z,2.77
2018-09-20T07:54:55.637Z,3.70
2018-09-20T07:57:26.093Z,3.80
2018-09-20T07:59:54.801Z,4.20
2018-09-20T08:02:23.502Z,4.30
2018-09-20T08:04:52.177Z,5.20
2018-09-20T08:07:20.877Z,5.20
2018-09-20T08:09:49.574Z,5.00
2018-09-20T08:12:18.309Z,5.70
2018-09-20T08:14:46.997Z,5.87
2018-09-20T08:17:15.745Z,7.17
2018-09-20T08:19:44.859Z,10.60
2018-09-20T08:22:13.626Z,14.77
2018-09-20T08:24:42.324Z,13.23
2018-09-20T08:27:11.057Z,13.07
2018-09-20T08:29:39.780Z,14.20
2018-09-20T08:32:08.520Z,13.63
2018-09-20T08:34:37.189Z,13.37
2018-09-20T08:37:05.857Z,12.83
2018-09-20T08:39:34.578Z,12.87
2018-09-20T08:42:03.331Z,12.60
2018-09-20T08:44:32.013Z,11.80
2018-09-20T08:47:00.756Z,10.80
2018-09-20T08:49:29.523Z,11.90
2018-09-20T08:51:58.263Z,10.00
2018-09-20T08:54:26.964Z,9.50
2018-09-20T08:56:55.768Z,9.50
2018-09-20T08:59:24.432Z,8.37
2018-09-20T09:01:53.141Z,7.83
2018-09-20T09:04:21.910Z,6.70
2018-09-20T09:06:50.677Z,6.87
2018-09-20T09:09:19.401Z,6.13
2018-09-20T09:11:48.137Z,6.60
2018-09-20T09:14:16.811Z,5.17
2018-09-20T09:16:45.513Z,5.10
2018-09-20T09:19:14.224Z,4.37
2018-09-20T09:21:42.937Z,4.17
2018-09-20T09:24:11.625Z,4.70
2018-09-20T09:26:40.488Z,4.17
2018-09-20T09:29:09.201Z,4.00
2018-09-20T09:31:37.921Z,4.30
2018-09-20T09:34:06.747Z,4.00
2018-09-20T09:36:35.474Z,5.00
2018-09-20T09:39:05.468Z,4.33
2018-09-20T09:41:34.380Z,5.03
2018-09-20T09:44:03.079Z,4.63
2018-09-20T09:46:31.924Z,4.87
2018-09-20T09:49:00.657Z,5.30
2018-09-20T09:51:29.401Z,5.00
2018-09-20T09:53:58.200Z,4.80
2018-09-20T09:56:26.906Z,3.93
2018-09-20T09:58:55.587Z,4.53
2018-09-20T10:01:24.288Z,4.10
2018-09-20T10:03:53.042Z,3.83
2018-09-20T10:06:21.753Z,4.23
2018-09-20T10:08:50.476Z,3.80
2018-09-20T10:11:19.161Z,4.10
2018-09-20T10:13:47.884Z,4.53
2018-09-20T10:16:16.597Z,4.23
2018-09-20T10:18:45.368Z,3.33
2018-09-20T10:21:14.082Z,4.17
2018-09-20T10:23:42.944Z,3.73
2018-09-20T10:26:12.480Z,3.93
2018-09-20T10:28:41.199Z,3.60
2018-09-20T10:31:10.028Z,3.67
2018-09-20T10:33:38.738Z,4.30
2018-09-20T10:36:07.436Z,4.07
2018-09-20T10:38:36.158Z,3.50
2018-09-20T10:41:04.927Z,4.30
2018-09-20T10:43:33.759Z,4.17
2018-09-20T10:46:02.479Z,4.27
2018-09-20T10:48:31.381Z,4.30
2018-09-20T10:51:00.118Z,4.83
2018-09-20T10:53:29.498Z,5.07
2018-09-20T10:55:58.200Z,4.70
2018-09-20T10:58:26.872Z,5.00
2018-09-20T11:00:55.537Z,5.57
2018-09-20T11:03:24.332Z,4.90
2018-09-20T11:05:53.008Z,6.43
2018-09-20T11:08:21.701Z,4.97
2018-09-20T11:10:50.455Z,5.40
2018-09-20T11:13:19.111Z,4.13
2018-09-20T11:15:47.785Z,5.10
2018-09-20T11:18:16.465Z,4.53
2018-09-20T11:20:45.177Z,3.13
2018-09-20T11:23:13.886Z,4.20
2018-09-20T11:25:42.589Z,3.67
2018-09-20T11:28:11.359Z,3.87
2018-09-20T11:30:40.071Z,3.30
2018-09-20T11:33:08.769Z,2.67
2018-09-20T11:35:37.491Z,3.73
2018-09-20T11:38:06.276Z,3.33
2018-09-20T11:40:34.973Z,2.60
2018-09-20T11:43:03.679Z,3.03
2018-09-20T11:45:32.382Z,2.87
2018-09-20T11:48:01.036Z,3.03
2018-09-20T11:50:29.726Z,3.17
2018-09-20T11:52:58.432Z,3.13
2018-09-20T11:55:27.117Z,3.23
2018-09-20T11:57:55.806Z,3.50
2018-09-20T12:00:24.499Z,4.13
2018-09-20T12:02:53.564Z,3.60
2018-09-20T12:05:22.677Z,4.70
2018-09-20T12:07:51.368Z,4.83
2018-09-20T12:10:20.227Z,4.27
2018-09-20T12:12:49.076Z,4.40
2018-09-20T12:15:17.800Z,4.90
2018-09-20T12:17:46.498Z,3.77
2018-09-20T12:20:15.215Z,3.70
2018-09-20T12:22:43.939Z,4.30
2018-09-20T12:25:12.649Z,5.17
2018-09-20T12:27:41.310Z,5.00
2018-09-20T12:30:10.087Z,4.43
2018-09-20T12:32:38.809Z,4.23
2018-09-20T12:35:07.554Z,4.67
2018-09-20T12:37:37.321Z,5.20
2018-09-20T12:40:07.212Z,5.77
2018-09-20T12:42:36.013Z,5.27
2018-09-20T12:45:04.804Z,5.27
2018-09-20T12:47:33.912Z,5.40
2018-09-20T12:50:02.651Z,5.33
2018-09-20T12:52:31.447Z,5.90
2018-09-20T12:55:00.153Z,5.70
2018-09-20T12:57:28.841Z,5.40
2018-09-20T12:59:57.585Z,6.53
2018-09-20T13:02:26.281Z,7.20
2018-09-20T13:04:54.965Z,6.43
2018-09-20T13:07:23.679Z,6.80
2018-09-20T13:09:52.357Z,6.57
2018-09-20T13:12:21.107Z,5.37
2018-09-20T13:14:49.775Z,5.83
2018-09-20T13:17:18.484Z,5.30
2018-09-20T13:19:47.269Z,5.57
2018-09-20T13:22:15.964Z,4.87
2018-09-20T13:24:44.643Z,5.90
2018-09-20T13:27:13.369Z,5.10
2018-09-20T13:29:42.100Z,5.87
2018-09-20T13:32:10.848Z,5.87
2018-09-20T13:34:39.519Z,5.53
2018-09-20T13:37:08.298Z,5.00
2018-09-20T13:39:37.047Z,5.17
2018-09-20T13:42:05.825Z,5.30
2018-09-20T13:44:34.614Z,5.50
2018-09-20T13:47:03.321Z,5.80
2018-09-20T13:49:32.048Z,4.80
2018-09-20T13:52:00.817Z,6.67
2018-09-20T13:54:29.508Z,6.20
2018-09-20T13:56:58.262Z,6.07
2018-09-20T13:59:34.311Z,5.30
2018-09-20T14:02:02.996Z,5.93
2018-09-20T14:04:31.684Z,5.90
2018-09-20T14:07:00.504Z,6.40
2018-09-20T14:09:29.177Z,5.60
2018-09-20T14:11:57.824Z,6.00
2018-09-20T14:14:26.520Z,6.33
2018-09-20T14:16:55.189Z,6.03
2018-09-20T14:19:23.848Z,6.50
2018-09-20T14:21:52.534Z,5.60
2018-09-20T14:24:21.205Z,5.50
2018-09-20T14:26:49.947Z,4.77
2018-09-20T14:29:18.572Z,5.30
2018-09-20T14:31:47.239Z,5.53
2018-09-20T14:34:15.964Z,5.97
2018-09-20T14:36:44.659Z,5.90
2018-09-20T14:39:13.389Z,5.37
2018-09-20T14:41:42.233Z,5.33
2018-09-20T14:44:11.053Z,5.70
2018-09-20T14:46:39.832Z,6.40
2018-09-20T14:49:08.678Z,5.67
2018-09-20T14:51:37.476Z,6.20
2018-09-20T14:54:06.256Z,6.00
2018-09-20T14:56:35.356Z,5.23
2018-09-20T14:59:04.055Z,5.33
2018-09-20T15:01:32.758Z,5.43
2018-09-20T15:04:01.543Z,5.50
2018-09-20T15:06:30.340Z,5.30
2018-09-20T15:08:59.048Z,5.50
2018-09-20T15:11:27.936Z,6.17
2018-09-20T15:13:56.686Z,4.80
2018-09-20T15:16:25.441Z,5.40
2018-09-20T15:18:54.140Z,4.50
2018-09-20T15:21:22.823Z,4.10
2018-09-20T15:23:51.594Z,5.30
2018-09-20T15:26:20.397Z,5.03
2018-09-20T15:28:49.167Z,5.23
2018-09-20T15:31:17.910Z,4.73
2018-09-20T15:33:46.633Z,5.30
2018-09-20T15:36:15.512Z,5.07
2018-09-20T15:38:44.423Z,5.13
2018-09-20T15:41:13.135Z,5.57
2018-09-20T15:43:41.806Z,5.10
2018-09-20T15:46:10.475Z,5.37
2018-09-20T15:48:39.458Z,5.00
2018-09-20T15:51:08.272Z,5.73
2018-09-20T15:53:36.954Z,5.30
2018-09-20T15:56:05.687Z,5.27
2018-09-20T15:58:34.579Z,5.50
2018-09-20T16:01:03.430Z,5.40
2018-09-20T16:03:32.181Z,5.43
2018-09-20T16:06:01.001Z,5.93
2018-09-20T16:08:29.651Z,6.07
2018-09-20T16:10:58.693Z,5.77
2018-09-20T16:13:27.527Z,5.37
2018-09-20T16:15:56.219Z,6.20
2018-09-20T16:18:24.865Z,7.27
2018-09-20T16:20:53.679Z,5.97
2018-09-20T16:23:22.403Z,6.17
2018-09-20T16:25:51.129Z,6.13
2018-09-20T16:28:38.144Z,5.97
2018-09-20T16:31:23.091Z,6.37
2018-09-20T16:34:31.121Z,6.23
2018-09-20T16:37:14.009Z,6.23
2018-09-20T16:39:45.273Z,6.20
2018-09-20T16:42:15.840Z,5.77
2018-09-20T16:44:44.530Z,5.50
2018-09-20T16:47:13.207Z,4.93
2018-09-20T16:49:41.860Z,5.60
2018-09-20T16:52:10.525Z,5.20
2018-09-20T16:54:39.243Z,5.13
2018-09-20T16:57:08.151Z,5.00
2018-09-20T16:59:37.057Z,4.30
2018-09-20T17:02:06.015Z,5.00
2018-09-20T17:04:34.889Z,5.20
2018-09-20T17:07:03.869Z,5.00
2018-09-20T17:09:33.263Z,4.20
2018-09-20T17:12:02.012Z,5.10
2018-09-20T17:14:30.827Z,4.80
2018-09-20T17:16:59.694Z,4.40
2018-09-20T17:19:28.464Z,4.23
2018-09-20T17:21:57.323Z,3.53
2018-09-20T17:24:26.296Z,3.40
2018-09-20T17:26:55.017Z,3.90
2018-09-20T17:29:23.864Z,3.70
2018-09-20T17:31:52.700Z,3.40
2018-09-20T17:34:21.692Z,3.77
2018-09-20T17:36:56.647Z,3.20
2018-09-20T17:39:26.586Z,4.20
2018-09-20T17:41:57.518Z,4.60
2018-09-20T17:44:26.232Z,3.80
2018-09-20T17:46:54.912Z,3.47
2018-09-20T17:49:23.755Z,3.77
2018-09-20T17:51:53.146Z,3.47
2018-09-20T17:54:22.221Z,4.03
2018-09-20T17:56:51.684Z,3.90
2018-09-20T17:59:20.322Z,3.23
2018-09-20T18:01:49.171Z,3.53
2018-09-20T18:04:18.010Z,4.20
2018-09-20T18:06:46.736Z,3.20
2018-09-20T18:09:15.445Z,2.93
2018-09-20T18:11:44.209Z,3.00
2018-09-20T18:14:12.933Z,2.60
2018-09-20T18:16:41.769Z,2.97
2018-09-20T18:19:10.456Z,2.60
2018-09-20T18:21:39.283Z,2.87
2018-09-20T18:24:08.037Z,2.60
2018-09-20T18:26:36.753Z,3.33
2018-09-20T18:29:05.465Z,3.17
2018-09-20T18:31:34.130Z,2.77
2018-09-20T18:34:02.913Z,3.27
2018-09-20T18:36:31.744Z,3.63
2018-09-20T18:39:00.446Z,3.37
2018-09-20T18:41:29.216Z,3.40
2018-09-20T18:43:57.912Z,3.07
2018-09-20T18:46:26.582Z,3.60
2018-09-20T18:48:55.302Z,3.80
2018-09-20T18:51:23.976Z,3.90
2018-09-20T18:53:52.677Z,3.53
2018-09-20T18:56:21.369Z,2.97
2018-09-20T18:58:50.025Z,3.30
2018-09-20T19:01:18.801Z,3.10
2018-09-20T19:03:47.482Z,3.27
2018-09-20T19:06:16.177Z,2.83
2018-09-20T19:08:44.976Z,2.57
2018-09-20T19:11:13.657Z,2.30
2018-09-20T19:13:42.316Z,2.30
2018-09-20T19:16:11.014Z,2.83
2018-09-20T19:18:40.102Z,2.87
2018-09-20T19:21:08.859Z,2.30
2018-09-20T19:23:37.592Z,2.30
2018-09-20T19:26:06.486Z,2.80
2018-09-20T19:28:35.135Z,1.70
2018-09-20T19:31:03.808Z,1.97
2018-09-20T19:33:36.221Z,2.10
2018-09-20T19:36:04.902Z,1.83
2018-09-20T19:38:33.667Z,1.70
2018-09-20T19:41:02.329Z,1.90
2018-09-20T19:43:31.042Z,1.70
2018-09-20T19:45:59.750Z,1.37
2018-09-20T19:48:28.409Z,1.27
2018-09-20T19:50:57.071Z,1.50
2018-09-20T19:53:25.750Z,1.50
2018-09-20T19:55:54.414Z,1.10
2018-09-20T19:58:23.089Z,1.20
2018-09-20T20:00:51.885Z,1.40
2018-09-20T20:03:20.576Z,1.70
2018-09-20T20:05:49.229Z,1.40
2018-09-20T20:08:17.899Z,2.33
2018-09-20T20:10:46.670Z,1.73
2018-09-20T20:13:15.385Z,1.43
2018-09-20T20:15:44.060Z,1.37
2018-09-20T20:18:12.751Z,1.50
2018-09-20T20:20:41.458Z,1.17
2018-09-20T20:23:10.168Z,2.30
2018-09-20T20:25:38.862Z,2.67
2018-09-20T20:28:07.649Z,2.83
2018-09-20T20:30:36.392Z,2.53
2018-09-20T20:33:05.103Z,3.27
2018-09-20T20:35:33.822Z,2.10
2018-09-20T20:38:03.114Z,1.60
2018-09-20T20:40:31.833Z,1.80
2018-09-20T20:43:00.517Z,4.03
2018-09-20T20:45:29.214Z,4.43
2018-09-20T20:47:57.883Z,3.13
2018-09-20T20:50:26.589Z,2.73
2018-09-20T20:52:55.440Z,3.87
2018-09-20T20:55:23.942Z,3.63
2018-09-20T20:57:52.768Z,3.73
2018-09-20T21:00:21.622Z,4.00
2018-09-20T21:02:50.485Z,4.57
2018-09-20T21:05:19.944Z,3.90
2018-09-20T21:07:49.576Z,3.37
2018-09-20T21:10:18.710Z,3.60
2018-09-20T21:12:48.200Z,2.37
2018-09-20T21:15:18.364Z,2.77
2018-09-20T21:17:47.117Z,2.10
2018-09-20T21:20:15.972Z,4.10
2018-09-20T21:22:44.862Z,4.70
2018-09-20T21:25:13.636Z,4.63
2018-09-20T21:27:42.445Z,4.43
2018-09-20T21:30:11.172Z,4.30
2018-09-20T21:32:40.061Z,3.90
2018-09-20T21:35:08.853Z,4.10
2018-09-20T21:37:37.639Z,4.00
2018-09-20T21:40:07.787Z,4.70
2018-09-20T21:42:37.031Z,3.37
2018-09-20T21:45:05.997Z,4.37
2018-09-20T21:47:34.939Z,5.20
2018-09-20T21:50:04.509Z,3.67
2018-09-20T21:52:33.785Z,3.33
2018-09-20T21:55:02.619Z,3.10
2018-09-20T21:57:32.104Z,2.97
2018-09-20T22:00:00.843Z,3.77
2018-09-20T22:02:34.676Z,3.67
2018-09-20T22:05:03.528Z,4.40
2018-09-20T22:07:32.277Z,3.87
2018-09-20T22:10:01.121Z,3.40
2018-09-20T22:12:30.160Z,2.87
2018-09-20T22:14:58.965Z,2.80
2018-09-20T22:17:27.795Z,4.00
2018-09-20T22:19:56.644Z,1.90
2018-09-20T22:22:25.720Z,3.73
2018-09-20T22:24:54.763Z,3.23
2018-09-20T22:27:23.669Z,2.40
2018-09-20T22:29:52.461Z,2.33
2018-09-20T22:32:21.234Z,2.87
2018-09-20T22:34:51.228Z,3.37
2018-09-20T22:37:20.433Z,2.60
2018-09-20T22:39:49.319Z,2.40
2018-09-20T22:42:18.013Z,2.43
2018-09-20T22:44:47.303Z,2.70
2018-09-20T22:47:15.999Z,2.60
2018-09-20T22:49:44.900Z,3.37
2018-09-20T22:52:13.581Z,1.90
2018-09-20T22:54:43.594Z,2.80
2018-09-20T22:57:12.488Z,2.20
2018-09-20T22:59:41.170Z,2.20
2018-09-20T23:02:09.845Z,1.40
2018-09-20T23:04:38.548Z,2.33
2018-09-20T23:07:08.059Z,1.67
2018-09-20T23:09:36.764Z,2.30
2018-09-20T23:12:05.536Z,2.40
2018-09-20T23:14:34.604Z,1.70
2018-09-20T23:17:03.337Z,1.63
2018-09-20T23:19:32.028Z,2.37
2018-09-20T23:22:00.779Z,3.10
2018-09-20T23:24:29.452Z,2.03
2018-09-20T23:26:58.140Z,2.70
2018-09-20T23:29:26.834Z,1.30
2018-09-20T23:31:55.516Z,1.63
2018-09-20T23:34:24.206Z,2.10
2018-09-20T23:36:53.760Z,2.40
2018-09-20T23:39:22.438Z,2.27
2018-09-20T23:41:51.100Z,1.73
2018-09-20T23:44:19.737Z,1.80
2018-09-20T23:46:48.451Z,2.17
2018-09-20T23:49:17.138Z,1.73
2018-09-20T23:51:45.794Z,1.73
2018-09-20T23:54:14.446Z,1.97
2018-09-20T23:56:43.116Z,1.67
2018-09-20T23:59:11.784Z,1.33
